createdAt,value
2018-11-14T00:00:18.610Z,40.13
2018-11-14T00:02:47.654Z,34.00
2018-11-14T00:05:16.429Z,34.97
2018-11-14T00:07:45.016Z,34.07
2018-11-14T00:10:13.626Z,35.00
2018-11-14T00:12:42.129Z,35.60
2018-11-14T00:15:13.289Z,31.60
2018-11-14T00:17:42.713Z,34.50
2018-11-14T00:20:11.931Z,37.03
2018-11-14T00:22:41.653Z,38.40
2018-11-14T00:25:11.133Z,39.90
2018-11-14T00:27:39.699Z,40.50
2018-11-14T00:30:12.776Z,42.03
2018-11-14T00:32:47.405Z,40.13
2018-11-14T00:35:16.030Z,41.13
2018-11-14T00:37:45.123Z,37.20
2018-11-14T00:40:14.737Z,38.23
2018-11-14T00:42:44.041Z,38.17
2018-11-14T00:45:14.330Z,39.30
2018-11-14T00:47:43.959Z,41.30
2018-11-14T00:50:13.466Z,40.40
2018-11-14T00:52:42.496Z,43.73
2018-11-14T00:55:16.163Z,45.50
2018-11-14T00:57:45.854Z,44.33
2018-11-14T01:00:17.821Z,54.90
2018-11-14T01:02:46.541Z,54.00
2018-11-14T01:05:16.011Z,53.70
2018-11-14T01:07:44.622Z,58.53
2018-11-14T01:10:15.206Z,56.37
2018-11-14T01:12:44.217Z,62.47
2018-11-14T01:15:15.105Z,64.43
2018-11-14T01:17:43.725Z,55.80
2018-11-14T01:20:14.119Z,56.70
2018-11-14T01:22:43.265Z,60.73
2018-11-14T01:25:13.010Z,52.33
2018-11-14T01:27:41.606Z,51.53
2018-11-14T01:30:14.558Z,49.27
2018-11-14T01:32:44.668Z,44.77
2018-11-14T01:35:13.325Z,46.83
2018-11-14T01:37:41.837Z,42.97
2018-11-14T01:40:17.456Z,47.77
2018-11-14T01:42:47.610Z,47.80
2018-11-14T01:45:16.174Z,53.47
2018-11-14T01:47:44.860Z,49.63
2018-11-14T01:50:13.439Z,50.47
2018-11-14T01:52:41.976Z,50.60
2018-11-14T01:55:12.585Z,45.73
2018-11-14T01:57:41.189Z,45.20
2018-11-14T02:00:13.050Z,42.30
2018-11-14T02:02:41.755Z,47.80
2018-11-14T02:05:10.806Z,45.43
2018-11-14T02:07:39.327Z,47.70
2018-11-14T02:10:09.591Z,42.73
2018-11-14T02:12:38.780Z,48.10
2018-11-14T02:15:26.300Z,40.63
2018-11-14T02:17:54.813Z,36.83
2018-11-14T02:20:23.330Z,42.03
2018-11-14T02:22:51.890Z,42.47
2018-11-14T02:25:20.443Z,43.23
2018-11-14T02:27:48.940Z,39.03
2018-11-14T02:30:19.701Z,40.37
2018-11-14T02:32:48.225Z,43.87
2018-11-14T02:35:16.815Z,41.17
2018-11-14T02:37:45.841Z,38.03
2018-11-14T02:40:15.513Z,44.93
2018-11-14T02:42:44.070Z,40.37
2018-11-14T02:45:13.117Z,39.57
2018-11-14T02:47:41.636Z,42.07
2018-11-14T02:50:11.702Z,37.10
2018-11-14T02:52:40.270Z,35.33
2018-11-14T02:55:10.410Z,37.27
2018-11-14T02:57:38.967Z,35.13
2018-11-14T03:00:11.999Z,35.40
2018-11-14T03:02:40.569Z,32.67
2018-11-14T03:05:09.263Z,35.23
2018-11-14T03:07:38.066Z,35.23
2018-11-14T03:10:10.111Z,44.93
2018-11-14T03:12:38.832Z,43.40
2018-11-14T03:15:14.671Z,45.43
2018-11-14T03:17:43.277Z,42.17
2018-11-14T03:20:14.694Z,41.43
2018-11-14T03:22:43.413Z,45.23
2018-11-14T03:25:17.569Z,50.37
2018-11-14T03:27:46.163Z,50.07
2018-11-14T03:30:17.015Z,49.57
2018-11-14T03:32:45.932Z,46.57
2018-11-14T03:35:15.058Z,43.07
2018-11-14T03:37:44.201Z,44.10
2018-11-14T03:40:14.880Z,47.80
2018-11-14T03:42:43.441Z,50.90
2018-11-14T03:45:13.121Z,46.23
2018-11-14T03:47:42.216Z,55.33
2018-11-14T03:50:11.134Z,57.93
2018-11-14T03:52:39.753Z,50.83
2018-11-14T03:55:08.313Z,50.60
2018-11-14T03:57:36.838Z,62.23
2018-11-14T04:00:08.922Z,57.70
2018-11-14T04:02:37.494Z,53.43
2018-11-14T04:05:06.429Z,58.27
2018-11-14T04:07:34.960Z,51.27
2018-11-14T04:10:03.540Z,50.93
2018-11-14T04:12:32.114Z,51.73
2018-11-14T04:15:00.661Z,49.47
2018-11-14T04:17:29.232Z,46.10
2018-11-14T04:19:58.001Z,51.83
2018-11-14T04:22:27.253Z,50.43
2018-11-14T04:24:55.791Z,49.83
2018-11-14T04:27:24.362Z,45.67
2018-11-14T04:29:52.910Z,46.87
2018-11-14T04:32:21.650Z,46.13
2018-11-14T04:34:50.286Z,50.07
2018-11-14T04:37:18.782Z,42.13
2018-11-14T04:39:47.253Z,41.30
2018-11-14T04:42:15.750Z,45.63
2018-11-14T04:44:44.246Z,45.60
2018-11-14T04:47:12.776Z,47.17
2018-11-14T04:49:41.256Z,50.17
2018-11-14T04:52:09.741Z,60.80
2018-11-14T04:54:38.212Z,59.70
2018-11-14T04:57:06.757Z,54.47
2018-11-14T04:59:35.267Z,53.10
2018-11-14T05:02:04.366Z,58.40
2018-11-14T05:04:32.895Z,63.10
2018-11-14T05:07:01.386Z,52.80
2018-11-14T05:09:29.878Z,50.37
2018-11-14T05:11:58.373Z,54.17
2018-11-14T05:14:26.921Z,53.50
2018-11-14T05:16:55.399Z,52.97
2018-11-14T05:19:27.073Z,55.13
2018-11-14T05:21:55.571Z,54.73
2018-11-14T05:24:24.447Z,57.27
2018-11-14T05:26:52.873Z,56.30
2018-11-14T05:29:21.442Z,55.27
2018-11-14T05:31:49.966Z,55.77
2018-11-14T05:34:18.463Z,51.77
2018-11-14T05:36:46.925Z,61.60
2018-11-14T05:39:15.466Z,59.80
2018-11-14T05:41:44.242Z,53.67
2018-11-14T05:44:12.822Z,53.40
2018-11-14T05:46:41.411Z,51.63
2018-11-14T05:49:09.993Z,49.37
2018-11-14T05:51:38.566Z,49.83
2018-11-14T05:54:08.505Z,48.20
2018-11-14T05:56:38.410Z,48.00
2018-11-14T05:59:07.043Z,48.07
2018-11-14T06:01:36.595Z,44.90
2018-11-14T06:04:05.458Z,42.27
2018-11-14T06:06:33.969Z,42.10
2018-11-14T06:09:04.437Z,41.50
2018-11-14T06:11:32.940Z,41.77
2018-11-14T06:14:01.472Z,44.10
2018-11-14T06:16:30.243Z,43.90
2018-11-14T06:18:59.237Z,44.37
2018-11-14T06:21:27.966Z,44.93
2018-11-14T06:23:56.526Z,44.47
2018-11-14T06:26:25.086Z,41.50
2018-11-14T06:28:53.673Z,46.90
2018-11-14T06:31:22.258Z,46.33
2018-11-14T06:33:50.924Z,46.83
2018-11-14T06:36:19.394Z,44.53
2018-11-14T06:38:47.912Z,45.53
2018-11-14T06:41:16.865Z,45.50
2018-11-14T06:43:45.869Z,38.67
2018-11-14T06:46:14.375Z,43.30
2018-11-14T06:48:43.363Z,39.67
2018-11-14T06:51:12.194Z,40.47
2018-11-14T06:53:40.641Z,40.37
2018-11-14T06:56:10.618Z,39.20
2018-11-14T06:58:39.134Z,42.37
2018-11-14T07:01:07.711Z,42.47
2018-11-14T07:03:36.254Z,69.53
2018-11-14T07:06:05.277Z,35.70
2018-11-14T07:08:33.637Z,35.53
2018-11-14T07:11:02.277Z,31.87
2018-11-14T07:13:30.801Z,34.87
2018-11-14T07:15:59.402Z,33.77
2018-11-14T07:18:27.920Z,31.07
2018-11-14T07:20:56.514Z,35.40
2018-11-14T07:23:25.130Z,38.20
2018-11-14T07:25:56.923Z,34.30
2018-11-14T07:28:25.874Z,31.43
2018-11-14T07:30:54.459Z,26.07
2018-11-14T07:33:22.996Z,18.73
2018-11-14T07:35:51.635Z,18.07
2018-11-14T07:38:43.873Z,23.93
2018-11-14T07:41:16.754Z,23.37
2018-11-14T07:43:45.446Z,28.10
2018-11-14T07:46:14.549Z,34.70
2018-11-14T07:48:43.664Z,32.63
2018-11-14T07:51:12.418Z,32.97
2018-11-14T07:53:40.989Z,30.00
2018-11-14T07:56:09.586Z,28.73
2018-11-14T07:58:38.187Z,30.27
2018-11-14T08:01:07.170Z,30.27
2018-11-14T08:03:35.734Z,32.37
2018-11-14T08:06:04.562Z,30.07
2018-11-14T08:08:33.297Z,29.83
2018-11-14T08:11:01.849Z,29.60
2018-11-14T08:13:32.478Z,30.63
2018-11-14T08:16:02.690Z,26.20
2018-11-14T08:18:31.448Z,28.73
2018-11-14T08:21:00.894Z,27.40
2018-11-14T08:23:29.477Z,30.30
2018-11-14T08:25:58.271Z,28.67
2018-11-14T08:40:00.932Z,30.67
2018-11-14T08:42:29.508Z,31.13
2018-11-14T08:44:58.138Z,31.77
2018-11-14T08:47:26.797Z,28.97
2018-11-14T08:49:55.443Z,30.13
2018-11-14T08:52:24.000Z,29.67
2018-11-14T08:54:52.593Z,30.13
2018-11-14T08:57:21.158Z,32.80
2018-11-14T08:59:49.777Z,28.53
2018-11-14T09:02:18.470Z,27.93
2018-11-14T09:04:47.909Z,32.57
2018-11-14T09:07:16.458Z,28.23
2018-11-14T09:09:45.021Z,26.63
2018-11-14T09:12:13.600Z,25.10
2018-11-14T09:14:42.210Z,16.77
2018-11-14T09:17:10.849Z,15.90
2018-11-14T09:19:39.454Z,17.43
2018-11-14T09:22:08.084Z,16.07
2018-11-14T09:24:36.981Z,14.63
2018-11-14T09:27:05.961Z,20.07
2018-11-14T09:29:34.540Z,24.23
2018-11-14T09:32:04.016Z,23.97
2018-11-14T09:34:32.563Z,18.50
2018-11-14T09:37:01.132Z,18.97
2018-11-14T09:39:29.658Z,18.67
2018-11-14T09:41:58.219Z,15.20
2018-11-14T09:44:26.775Z,14.43
2018-11-14T09:46:55.338Z,13.47
2018-11-14T09:49:24.001Z,17.87
2018-11-14T09:51:53.008Z,14.40
2018-11-14T09:54:21.678Z,16.57
2018-11-14T09:56:50.348Z,16.67
2018-11-14T09:59:18.867Z,18.23
2018-11-14T10:01:47.439Z,26.37
2018-11-14T10:04:16.066Z,25.27
2018-11-14T10:06:44.829Z,27.90
2018-11-14T10:09:14.322Z,26.57
2018-11-14T10:11:42.889Z,31.67
2018-11-14T10:14:11.990Z,33.63
2018-11-14T10:16:40.562Z,29.97
2018-11-14T10:19:10.919Z,26.90
2018-11-14T10:21:39.945Z,30.73
2018-11-14T10:24:08.486Z,30.53
2018-11-14T10:26:37.494Z,31.13
2018-11-14T10:29:06.249Z,30.53
2018-11-14T10:31:35.201Z,31.07
2018-11-14T10:34:03.766Z,26.50
2018-11-14T10:36:32.510Z,24.23
2018-11-14T10:39:01.126Z,26.13
2018-11-14T10:41:29.915Z,21.57
2018-11-14T10:43:58.462Z,21.93
2018-11-14T10:46:26.966Z,24.23
2018-11-14T10:48:55.514Z,19.17
2018-11-14T10:51:24.074Z,20.13
2018-11-14T10:53:52.619Z,19.53
2018-11-14T10:56:21.122Z,19.37
2018-11-14T10:58:49.665Z,22.83
2018-11-14T11:01:23.516Z,20.97
2018-11-14T11:03:57.190Z,20.83
2018-11-14T11:06:35.388Z,24.73
2018-11-14T11:09:14.781Z,19.50
2018-11-14T11:11:48.962Z,21.93
2018-11-14T11:14:22.667Z,18.40
2018-11-14T11:16:56.441Z,16.50
2018-11-14T11:19:28.266Z,20.20
2018-11-14T11:21:56.818Z,18.37
2018-11-14T11:24:25.437Z,21.07
2018-11-14T11:26:54.043Z,20.43
2018-11-14T11:29:22.618Z,18.43
2018-11-14T11:31:51.412Z,19.63
2018-11-14T11:34:19.996Z,17.10
2018-11-14T11:36:48.488Z,19.50
2018-11-14T11:39:18.334Z,21.03
2018-11-14T11:41:47.422Z,20.57
2018-11-14T11:44:16.148Z,18.03
2018-11-14T11:46:44.980Z,19.83
2018-11-14T11:49:13.556Z,17.93
2018-11-14T11:51:42.053Z,20.37
2018-11-14T11:54:10.594Z,16.37
2018-11-14T11:56:39.530Z,17.80
2018-11-14T11:59:08.771Z,19.23
2018-11-14T12:01:37.302Z,17.23
2018-11-14T12:04:06.054Z,18.23
2018-11-14T12:06:34.663Z,18.80
2018-11-14T12:09:04.500Z,20.00
2018-11-14T12:11:33.018Z,17.80
2018-11-14T12:14:01.567Z,19.10
2018-11-14T12:16:30.576Z,19.30
2018-11-14T12:18:59.159Z,18.03
2018-11-14T12:21:27.736Z,18.27
2018-11-14T12:23:57.196Z,16.10
2018-11-14T12:26:26.322Z,16.30
2018-11-14T12:28:54.918Z,17.20
2018-11-14T12:31:23.483Z,15.37
2018-11-14T12:33:52.013Z,17.30
2018-11-14T12:36:20.536Z,15.43
2018-11-14T12:38:49.123Z,16.93
2018-11-14T12:41:17.585Z,16.20
2018-11-14T12:43:46.066Z,16.50
2018-11-14T12:46:14.591Z,16.60
2018-11-14T12:48:43.126Z,30.23
2018-11-14T12:51:11.659Z,21.57
2018-11-14T12:53:40.155Z,16.27
2018-11-14T12:56:08.717Z,16.03
2018-11-14T12:58:37.985Z,15.47
2018-11-14T13:01:06.570Z,19.40
2018-11-14T13:03:35.629Z,14.97
2018-11-14T13:06:04.238Z,15.87
2018-11-14T13:08:33.044Z,16.47
2018-11-14T13:11:01.574Z,15.20
2018-11-14T13:13:35.453Z,15.80
2018-11-14T13:16:04.249Z,17.63
2018-11-14T13:18:32.749Z,16.20
2018-11-14T13:21:01.945Z,15.93
2018-11-14T13:23:31.086Z,15.93
2018-11-14T13:25:59.571Z,15.77
2018-11-14T13:28:28.021Z,15.63
2018-11-14T13:30:56.757Z,15.30
2018-11-14T13:33:25.465Z,15.00
2018-11-14T13:35:54.014Z,16.73
2018-11-14T13:38:22.553Z,15.53
2018-11-14T13:40:51.091Z,15.03
2018-11-14T13:50:22.901Z,17.87
2018-11-14T13:52:51.299Z,15.23
2018-11-14T13:55:20.942Z,18.00
2018-11-14T13:57:50.632Z,16.43
2018-11-14T14:00:20.242Z,16.83
2018-11-14T14:02:49.641Z,18.03
2018-11-14T14:05:19.576Z,18.07
2018-11-14T14:07:48.067Z,16.87
2018-11-14T14:10:17.147Z,20.47
2018-11-14T14:12:47.026Z,112.37
2018-11-14T14:15:19.027Z,16.07
2018-11-14T14:17:48.202Z,19.40
2018-11-14T14:20:17.531Z,17.60
2018-11-14T14:22:46.289Z,19.83
2018-11-14T14:25:16.123Z,18.67
2018-11-14T14:27:44.652Z,18.90
2018-11-14T14:30:14.625Z,20.50
2018-11-14T14:32:43.862Z,19.40
2018-11-14T14:35:13.771Z,18.27
2018-11-14T14:37:42.349Z,17.50
2018-11-14T14:40:13.575Z,18.97
2018-11-14T14:42:42.091Z,20.30
2018-11-14T14:45:11.577Z,21.83
2018-11-14T14:47:40.063Z,21.13
2018-11-14T14:50:10.980Z,20.80
2018-11-14T14:52:40.037Z,19.43
2018-11-14T14:55:11.107Z,23.00
2018-11-14T14:57:39.671Z,20.97
2018-11-14T15:00:13.957Z,22.40
2018-11-14T15:02:42.868Z,23.47
2018-11-14T15:05:12.418Z,27.43
2018-11-14T15:07:41.282Z,24.67
2018-11-14T15:10:12.675Z,24.97
2018-11-14T15:12:41.943Z,25.07
2018-11-14T15:15:10.572Z,25.00
2018-11-14T15:17:39.124Z,25.93
2018-11-14T15:20:10.769Z,27.80
2018-11-14T15:22:39.409Z,29.47
2018-11-14T15:25:10.106Z,24.67
2018-11-14T15:27:39.386Z,28.60
2018-11-14T15:30:10.512Z,24.73
2018-11-14T15:32:39.384Z,25.53
2018-11-14T15:35:08.658Z,25.00
2018-11-14T15:37:37.382Z,27.93
2018-11-14T15:40:07.070Z,27.90
2018-11-14T15:42:36.308Z,29.70
2018-11-14T15:45:05.166Z,33.70
2018-11-14T15:47:33.672Z,27.47
2018-11-14T15:50:02.238Z,34.83
2018-11-14T15:52:30.745Z,32.87
2018-11-14T15:54:59.303Z,35.17
2018-11-14T15:57:27.875Z,33.10
2018-11-14T15:59:56.406Z,32.83
2018-11-14T16:02:24.947Z,33.40
2018-11-14T16:04:53.441Z,34.00
2018-11-14T16:07:22.002Z,32.73
2018-11-14T16:09:50.495Z,32.13
2018-11-14T16:12:19.153Z,32.33
2018-11-14T16:14:47.646Z,36.47
2018-11-14T16:17:16.193Z,40.30
2018-11-14T16:19:44.698Z,40.80
2018-11-14T16:22:13.230Z,41.30
2018-11-14T16:24:41.823Z,38.63
2018-11-14T16:27:10.349Z,38.70
2018-11-14T16:29:38.866Z,33.20
2018-11-14T16:32:07.429Z,33.77
2018-11-14T16:34:35.948Z,45.40
2018-11-14T16:37:04.559Z,42.53
2018-11-14T16:39:33.076Z,32.80
2018-11-14T16:42:01.649Z,34.67
2018-11-14T16:44:30.225Z,34.37
2018-11-14T16:46:58.712Z,39.80
2018-11-14T16:49:27.238Z,39.70
2018-11-14T16:51:55.795Z,38.50
2018-11-14T16:54:24.318Z,40.37
2018-11-14T16:56:52.878Z,39.13
2018-11-14T16:59:21.380Z,38.73
2018-11-14T17:01:50.174Z,34.37
2018-11-14T17:04:18.663Z,36.47
2018-11-14T17:06:47.203Z,36.07
2018-11-14T17:09:15.649Z,35.80
2018-11-14T17:11:44.124Z,51.40
2018-11-14T17:14:12.635Z,36.70
2018-11-14T17:16:41.149Z,36.03
2018-11-14T17:19:09.653Z,37.97
2018-11-14T17:21:38.200Z,35.30
2018-11-14T17:24:06.746Z,36.23
2018-11-14T17:26:35.242Z,38.13
2018-11-14T17:29:03.714Z,40.03
2018-11-14T17:31:32.212Z,54.27
2018-11-14T17:34:00.671Z,54.10
2018-11-14T17:36:29.207Z,60.23
2018-11-14T17:38:57.686Z,67.67
2018-11-14T17:41:26.228Z,60.20
2018-11-14T17:43:54.693Z,53.03
2018-11-14T17:46:23.234Z,45.33
2018-11-14T17:48:51.746Z,39.17
2018-11-14T17:51:20.281Z,39.07
2018-11-14T17:53:48.790Z,38.63
2018-11-14T17:56:17.329Z,34.97
2018-11-14T17:58:46.046Z,37.13
2018-11-14T18:01:14.572Z,36.50
2018-11-14T18:03:43.107Z,34.10
2018-11-14T18:06:11.801Z,34.70
2018-11-14T18:08:40.515Z,37.27
2018-11-14T18:11:09.031Z,34.60
2018-11-14T18:13:37.541Z,34.40
2018-11-14T18:16:06.594Z,31.10
2018-11-14T18:18:35.181Z,29.03
2018-11-14T18:21:03.674Z,32.00
2018-11-14T18:23:32.833Z,30.07
2018-11-14T18:26:01.359Z,32.27
2018-11-14T18:28:29.868Z,29.73
2018-11-14T18:30:58.372Z,28.27
2018-11-14T18:33:26.905Z,32.13
2018-11-14T18:35:55.405Z,33.90
2018-11-14T18:38:23.975Z,33.97
2018-11-14T18:40:52.722Z,31.57
2018-11-14T18:43:21.593Z,32.77
2018-11-14T18:45:50.143Z,33.80
2018-11-14T18:48:18.601Z,35.90
2018-11-14T18:50:47.068Z,33.97
2018-11-14T18:53:15.565Z,36.67
2018-11-14T18:55:44.086Z,39.70
2018-11-14T18:58:12.582Z,40.13
2018-11-14T19:00:41.102Z,35.67
2018-11-14T19:03:09.638Z,36.23
2018-11-14T19:05:38.105Z,36.40
2018-11-14T19:08:06.681Z,36.07
2018-11-14T19:10:35.364Z,35.37
2018-11-14T19:13:04.122Z,37.20
2018-11-14T19:15:33.885Z,34.70
2018-11-14T19:18:02.402Z,36.83
2018-11-14T19:20:32.158Z,38.13
2018-11-14T19:23:01.378Z,36.33
2018-11-14T19:25:31.158Z,33.70
2018-11-14T19:27:59.717Z,31.60
2018-11-14T19:30:29.627Z,32.77
2018-11-14T19:32:59.498Z,30.70
2018-11-14T19:35:28.106Z,35.50
2018-11-14T19:37:57.177Z,32.63
2018-11-14T19:40:28.018Z,32.20
2018-11-14T19:42:58.739Z,34.63
2018-11-14T19:45:29.481Z,36.37
2018-11-14T19:47:57.996Z,33.73
2018-11-14T19:50:26.755Z,36.97
2018-11-14T19:52:55.345Z,36.70
2018-11-14T19:55:25.095Z,34.57
2018-11-14T19:57:54.833Z,35.63
2018-11-14T20:00:25.321Z,35.30
2018-11-14T20:02:53.816Z,36.13
2018-11-14T20:05:22.771Z,34.83
2018-11-14T20:07:51.284Z,33.30
2018-11-14T20:10:21.080Z,30.77
2018-11-14T20:12:50.175Z,31.47
2018-11-14T20:15:21.941Z,34.23
2018-11-14T20:17:50.830Z,29.53
2018-11-14T20:20:22.681Z,32.10
2018-11-14T20:22:51.197Z,33.40
2018-11-14T20:25:19.708Z,32.43
2018-11-14T20:27:48.556Z,30.33
2018-11-14T20:30:21.018Z,32.93
2018-11-14T20:32:50.005Z,31.43
2018-11-14T20:35:19.577Z,35.50
2018-11-14T20:37:48.142Z,33.37
2018-11-14T20:40:17.867Z,37.37
2018-11-14T20:42:46.932Z,34.40
2018-11-14T20:45:17.505Z,32.93
2018-11-14T20:47:46.077Z,34.80
2018-11-14T20:50:16.742Z,32.70
2018-11-14T20:52:46.762Z,35.87
2018-11-14T20:55:15.651Z,33.70
2018-11-14T20:57:44.696Z,34.77
2018-11-14T21:00:20.753Z,37.10
2018-11-14T21:02:49.476Z,36.87
2018-11-14T21:05:18.022Z,34.27
2018-11-14T21:07:46.601Z,33.73
2018-11-14T21:10:16.450Z,34.33
2018-11-14T21:12:45.297Z,36.23
2018-11-14T21:15:17.377Z,39.57
2018-11-14T21:17:46.260Z,35.93
2018-11-14T21:20:14.807Z,44.57
2018-11-14T21:22:43.430Z,38.27
2018-11-14T21:25:13.503Z,38.53
2018-11-14T21:27:43.233Z,38.80
2018-11-14T21:30:13.626Z,40.57
2018-11-14T21:32:42.988Z,37.07
2018-11-14T21:35:17.631Z,33.73
2018-11-14T21:37:47.417Z,38.80
2018-11-14T21:40:15.989Z,37.23
2018-11-14T21:42:44.598Z,36.43
2018-11-14T21:45:18.513Z,36.50
2018-11-14T21:47:52.469Z,35.40
2018-11-14T21:50:22.077Z,40.77
2018-11-14T21:52:50.670Z,38.63
2018-11-14T21:55:19.240Z,36.20
2018-11-14T21:57:47.846Z,36.53
2018-11-14T22:00:19.529Z,37.57
2018-11-14T22:02:50.441Z,37.97
2018-11-14T22:05:19.010Z,40.17
2018-11-14T22:07:47.579Z,40.20
2018-11-14T22:10:17.514Z,40.07
2018-11-14T22:12:46.627Z,40.60
2018-11-14T22:15:16.275Z,40.93
2018-11-14T22:17:44.792Z,39.23
2018-11-14T22:20:14.465Z,38.93
2018-11-14T22:22:47.428Z,36.33
2018-11-14T22:25:17.303Z,40.93
2018-11-14T22:27:45.988Z,39.57
2018-11-14T22:30:21.056Z,41.03
2018-11-14T22:32:49.648Z,45.07
2018-11-14T22:35:19.693Z,42.90
2018-11-14T22:37:50.399Z,43.30
2018-11-14T22:40:21.230Z,43.03
2018-11-14T22:42:49.804Z,44.00
2018-11-14T22:45:19.736Z,44.97
2018-11-14T22:49:12.760Z,43.60
2018-11-14T22:51:41.646Z,45.63
2018-11-14T22:54:10.197Z,47.67
2018-11-14T22:56:38.731Z,47.40
2018-11-14T22:59:07.332Z,48.33
2018-11-14T23:01:40.733Z,49.37
2018-11-14T23:04:09.331Z,45.10
2018-11-14T23:06:38.097Z,46.57
2018-11-14T23:09:09.922Z,45.83
2018-11-14T23:11:38.481Z,46.50
2018-11-14T23:14:07.104Z,43.23
2018-11-14T23:16:35.753Z,43.50
2018-11-14T23:19:04.419Z,48.80
2018-11-14T23:21:32.947Z,45.43
2018-11-14T23:24:01.526Z,45.93
2018-11-14T23:26:30.613Z,49.10
2018-11-14T23:28:59.437Z,51.67
2018-11-14T23:31:27.965Z,50.97
2018-11-14T23:33:56.662Z,54.77
2018-11-14T23:36:25.197Z,53.97
2018-11-14T23:38:53.770Z,58.43
2018-11-14T23:41:22.348Z,52.47
2018-11-14T23:43:50.962Z,52.20
2018-11-14T23:46:20.019Z,50.43
2018-11-14T23:48:48.638Z,48.77
2018-11-14T23:51:17.587Z,51.03
2018-11-14T23:53:46.277Z,52.57
2018-11-14T23:56:14.834Z,51.70
2018-11-14T23:58:44.682Z,52.23
